createdAt,value
2023-02-22T00:02:05.454Z,8.20
2023-02-22T00:14:05.889Z,8.10
2023-02-22T00:26:06.353Z,9.20
2023-02-22T00:38:06.786Z,8.90
2023-02-22T00:50:07.221Z,7.50
2023-02-22T01:02:07.698Z,7.50
2023-02-22T01:14:08.143Z,7.90
2023-02-22T01:26:08.607Z,8.20
2023-02-22T01:38:09.040Z,6.50
2023-02-22T01:50:09.477Z,6.60
2023-02-22T02:02:09.955Z,8.00
2023-02-22T02:14:10.430Z,7.10
2023-02-22T02:26:10.852Z,8.10
2023-02-22T02:38:11.277Z,8.80
2023-02-22T02:50:11.749Z,8.50
2023-02-22T03:02:12.214Z,7.90
2023-02-22T03:14:12.618Z,7.70
2023-02-22T03:26:13.070Z,7.50
2023-02-22T03:38:13.529Z,6.80
2023-02-22T03:50:14.021Z,7.40
2023-02-22T04:02:14.474Z,6.50
2023-02-22T04:14:14.907Z,6.80
2023-02-22T04:26:15.336Z,6.20
2023-02-22T04:38:15.873Z,6.60
2023-02-22T04:50:16.233Z,6.10
2023-02-22T05:02:16.743Z,6.40
2023-02-22T05:14:17.149Z,6.40
2023-02-22T05:26:17.643Z,6.70
2023-02-22T05:38:18.068Z,6.50
2023-02-22T05:50:18.481Z,6.90
2023-02-22T06:02:19.024Z,6.40
2023-02-22T06:14:19.461Z,8.90
2023-02-22T06:26:19.883Z,7.20
2023-02-22T06:38:20.344Z,8.10
2023-02-22T06:50:20.779Z,10.50
2023-02-22T07:02:21.239Z,10.00
2023-02-22T07:14:21.658Z,10.70
2023-02-22T07:26:22.145Z,11.50
2023-02-22T07:38:22.584Z,8.30
2023-02-22T07:50:23.129Z,8.60
2023-02-22T08:02:23.542Z,9.30
2023-02-22T08:14:23.949Z,9.50
2023-02-22T08:26:24.394Z,8.60
2023-02-22T08:38:24.857Z,8.60
2023-02-22T08:50:25.340Z,8.70
2023-02-22T09:02:25.813Z,8.10
2023-02-22T09:14:26.182Z,7.80
2023-02-22T09:26:26.707Z,5.90
2023-02-22T09:38:27.096Z,5.60
2023-02-22T09:50:27.554Z,5.70
2023-02-22T10:02:28.030Z,5.30
2023-02-22T10:14:28.475Z,7.50
2023-02-22T10:26:28.885Z,6.20
2023-02-22T10:38:29.394Z,6.60
2023-02-22T10:50:29.821Z,6.10
2023-02-22T11:02:30.263Z,6.00
2023-02-22T11:14:30.745Z,5.50
2023-02-22T11:26:31.188Z,5.00
2023-02-22T11:38:31.600Z,5.10
2023-02-22T11:50:32.075Z,5.10
2023-02-22T12:02:32.555Z,5.60
2023-02-22T12:14:33.019Z,5.40
2023-02-22T12:26:33.435Z,5.40
2023-02-22T12:38:33.988Z,5.00
2023-02-22T12:50:34.456Z,5.80
2023-02-22T13:02:34.856Z,5.40
2023-02-22T13:14:35.294Z,5.80
2023-02-22T13:26:35.757Z,5.40
2023-02-22T13:38:36.235Z,6.60
2023-02-22T13:50:36.641Z,7.70
2023-02-22T14:02:37.127Z,5.20
2023-02-22T14:14:37.594Z,12.20
2023-02-22T14:26:38.064Z,6.00
2023-02-22T14:38:38.439Z,5.30
2023-02-22T14:50:38.955Z,6.80
2023-02-22T15:02:39.451Z,5.80
2023-02-22T15:14:39.859Z,5.90
2023-02-22T15:26:49.020Z,5.10
2023-02-22T15:38:40.778Z,4.60
2023-02-22T15:50:41.240Z,5.00
2023-02-22T16:02:41.823Z,4.60
2023-02-22T16:14:42.119Z,4.70
2023-02-22T16:26:42.583Z,4.60
2023-02-22T16:38:43.045Z,6.50
2023-02-22T16:50:43.478Z,5.60
2023-02-22T17:02:43.917Z,7.30
2023-02-22T17:14:44.359Z,6.20
2023-02-22T17:26:44.849Z,7.40
2023-02-22T17:38:45.272Z,4.30
2023-02-22T17:50:45.745Z,6.00
2023-02-22T18:02:46.269Z,12.50
2023-02-22T18:14:46.664Z,5.70
2023-02-22T18:26:47.145Z,7.60
2023-02-22T18:38:47.548Z,11.40
2023-02-22T18:50:48.040Z,12.30
2023-02-22T19:02:48.528Z,20.30
2023-02-22T19:14:48.930Z,20.00
2023-02-22T19:26:49.332Z,17.30
2023-02-22T19:38:49.812Z,17.50
2023-02-22T19:50:50.298Z,16.20
2023-02-22T20:02:50.718Z,19.90
2023-02-22T20:14:51.238Z,22.00
2023-02-22T20:26:51.651Z,20.40
2023-02-22T20:38:52.129Z,19.60
2023-02-22T20:50:52.525Z,19.10
2023-02-22T21:02:52.998Z,19.00
2023-02-22T21:14:53.422Z,23.20
2023-02-22T21:26:53.926Z,21.40
2023-02-22T21:38:54.375Z,20.00
2023-02-22T21:50:54.832Z,19.60
2023-02-22T22:02:55.297Z,18.90
2023-02-22T22:14:55.686Z,18.70
2023-02-22T22:26:56.178Z,22.40
2023-02-22T22:38:56.623Z,25.20
2023-02-22T22:50:57.030Z,25.10
2023-02-22T23:02:57.636Z,23.00
2023-02-22T23:14:57.967Z,23.00
2023-02-22T23:26:58.423Z,21.20
2023-02-22T23:38:58.878Z,20.10
2023-02-22T23:50:59.394Z,20.60
